sensor_id;sensor_type;location;lat;lon;timestamp;pressure;altitude;pressure_sealevel;temperature;humidity
63663;BME280;49815;51.618;0.336;2022-08-03T00:00:31;100652.06;;;16.93;57.45
63663;BME280;49815;51.618;0.336;2022-08-03T00:02:56;100645.80;;;16.63;58.41
63663;BME280;49815;51.618;0.336;2022-08-03T00:05:21;100646.00;;;17.24;56.65
63663;BME280;49815;51.618;0.336;2022-08-03T00:07:46;100649.20;;;16.10;60.22
63663;BME280;49815;51.618;0.336;2022-08-03T00:10:13;100649.68;;;16.00;61.15
63663;BME280;49815;51.618;0.336;2022-08-03T00:12:37;100645.64;;;15.93;61.33
63663;BME280;49815;51.618;0.336;2022-08-03T00:15:04;100643.98;;;16.55;60.54
63663;BME280;49815;51.618;0.336;2022-08-03T00:17:28;100637.17;;;17.10;58.29
63663;BME280;49815;51.618;0.336;2022-08-03T00:19:53;100635.06;;;16.45;59.58
63663;BME280;49815;51.618;0.336;2022-08-03T00:22:20;100640.68;;;16.09;60.30
63663;BME280;49815;51.618;0.336;2022-08-03T00:24:44;100642.21;;;15.62;61.48
63663;BME280;49815;51.618;0.336;2022-08-03T00:27:09;100640.15;;;16.08;60.95
63663;BME280;49815;51.618;0.336;2022-08-03T00:29:35;100635.72;;;15.31;62.03
63663;BME280;49815;51.618;0.336;2022-08-03T00:32:00;100623.69;;;17.71;56.84
63663;BME280;49815;51.618;0.336;2022-08-03T00:34:25;100622.80;;;17.83;55.56
63663;BME280;49815;51.618;0.336;2022-08-03T00:36:50;100620.30;;;17.63;55.48
63663;BME280;49815;51.618;0.336;2022-08-03T00:39:16;100621.47;;;16.38;59.24
63663;BME280;49815;51.618;0.336;2022-08-03T00:41:41;100627.27;;;16.14;60.11
63663;BME280;49815;51.618;0.336;2022-08-03T00:44:07;100620.69;;;16.54;59.08
63663;BME280;49815;51.618;0.336;2022-08-03T00:46:32;100621.87;;;17.02;58.19
63663;BME280;49815;51.618;0.336;2022-08-03T00:48:58;100619.94;;;17.25;57.61
63663;BME280;49815;51.618;0.336;2022-08-03T00:51:23;100615.33;;;15.91;59.36
63663;BME280;49815;51.618;0.336;2022-08-03T00:53:49;100615.37;;;16.19;59.98
63663;BME280;49815;51.618;0.336;2022-08-03T00:56:14;100620.48;;;15.70;61.68
63663;BME280;49815;51.618;0.336;2022-08-03T00:58:38;100620.79;;;15.00;63.63
63663;BME280;49815;51.618;0.336;2022-08-03T01:01:04;100621.57;;;15.61;62.47
63663;BME280;49815;51.618;0.336;2022-08-03T01:03:29;100622.24;;;15.67;62.46
63663;BME280;49815;51.618;0.336;2022-08-03T01:05:59;100618.16;;;15.62;61.61
63663;BME280;49815;51.618;0.336;2022-08-03T01:08:26;100617.63;;;15.75;60.70
63663;BME280;49815;51.618;0.336;2022-08-03T01:10:53;100618.40;;;14.83;63.36
63663;BME280;49815;51.618;0.336;2022-08-03T01:13:20;100621.33;;;14.88;63.98
63663;BME280;49815;51.618;0.336;2022-08-03T01:15:41;100617.46;;;15.68;61.66
63663;BME280;49815;51.618;0.336;2022-08-03T01:18:08;100612.55;;;15.87;61.02
63663;BME280;49815;51.618;0.336;2022-08-03T01:20:32;100607.24;;;16.91;58.13
63663;BME280;49815;51.618;0.336;2022-08-03T01:23:07;100609.34;;;15.49;61.33
63663;BME280;49815;51.618;0.336;2022-08-03T01:25:30;100603.15;;;16.68;59.99
63663;BME280;49815;51.618;0.336;2022-08-03T01:27:53;100608.87;;;15.57;61.51
63663;BME280;49815;51.618;0.336;2022-08-03T01:30:11;100610.59;;;14.86;63.84
63663;BME280;49815;51.618;0.336;2022-08-03T01:32:41;100612.50;;;15.01;63.05
63663;BME280;49815;51.618;0.336;2022-08-03T01:35:05;100608.60;;;15.10;63.27
63663;BME280;49815;51.618;0.336;2022-08-03T01:37:37;100606.25;;;15.95;60.99
63663;BME280;49815;51.618;0.336;2022-08-03T01:39:54;100602.62;;;15.94;60.51
63663;BME280;49815;51.618;0.336;2022-08-03T01:42:19;100608.77;;;15.60;61.73
63663;BME280;49815;51.618;0.336;2022-08-03T01:44:44;100608.78;;;15.99;60.20
63663;BME280;49815;51.618;0.336;2022-08-03T01:47:09;100615.87;;;15.09;62.29
63663;BME280;49815;51.618;0.336;2022-08-03T01:49:38;100615.45;;;15.17;63.17
63663;BME280;49815;51.618;0.336;2022-08-03T01:52:00;100614.07;;;15.45;63.14
63663;BME280;49815;51.618;0.336;2022-08-03T01:54:27;100611.95;;;17.37;58.04
63663;BME280;49815;51.618;0.336;2022-08-03T01:56:51;100614.34;;;16.21;58.15
63663;BME280;49815;51.618;0.336;2022-08-03T01:59:18;100615.41;;;16.37;59.02
63663;BME280;49815;51.618;0.336;2022-08-03T02:01:42;100618.43;;;16.00;60.42
63663;BME280;49815;51.618;0.336;2022-08-03T02:04:08;100617.12;;;15.53;61.63
63663;BME280;49815;51.618;0.336;2022-08-03T02:06:34;100615.38;;;16.37;60.12
63663;BME280;49815;51.618;0.336;2022-08-03T02:08:58;100619.73;;;15.76;61.56
63663;BME280;49815;51.618;0.336;2022-08-03T02:11:23;100621.09;;;15.15;63.19
63663;BME280;49815;51.618;0.336;2022-08-03T02:13:50;100617.42;;;15.03;63.40
63663;BME280;49815;51.618;0.336;2022-08-03T02:16:14;100619.69;;;15.18;63.29
63663;BME280;49815;51.618;0.336;2022-08-03T02:18:40;100618.30;;;14.70;64.35
63663;BME280;49815;51.618;0.336;2022-08-03T02:21:07;100613.69;;;14.90;64.33
63663;BME280;49815;51.618;0.336;2022-08-03T02:23:30;100615.08;;;14.19;66.96
63663;BME280;49815;51.618;0.336;2022-08-03T02:25:57;100611.98;;;15.46;63.15
63663;BME280;49815;51.618;0.336;2022-08-03T02:28:27;100612.37;;;14.01;66.71
63663;BME280;49815;51.618;0.336;2022-08-03T02:30:52;100611.64;;;15.73;62.14
63663;BME280;49815;51.618;0.336;2022-08-03T02:33:17;100601.75;;;16.54;60.12
63663;BME280;49815;51.618;0.336;2022-08-03T02:35:39;100599.30;;;15.77;61.44
63663;BME280;49815;51.618;0.336;2022-08-03T02:38:06;100600.34;;;15.00;64.93
63663;BME280;49815;51.618;0.336;2022-08-03T02:40:30;100599.47;;;15.76;62.15
63663;BME280;49815;51.618;0.336;2022-08-03T02:42:56;100594.27;;;16.47;60.75
63663;BME280;49815;51.618;0.336;2022-08-03T02:45:20;100595.57;;;15.69;61.87
63663;BME280;49815;51.618;0.336;2022-08-03T02:47:45;100597.01;;;15.73;62.59
63663;BME280;49815;51.618;0.336;2022-08-03T02:50:11;100598.01;;;14.38;65.92
63663;BME280;49815;51.618;0.336;2022-08-03T02:52:36;100591.94;;;14.60;66.88
63663;BME280;49815;51.618;0.336;2022-08-03T02:55:03;100593.09;;;15.81;64.20
63663;BME280;49815;51.618;0.336;2022-08-03T02:57:28;100594.39;;;14.94;64.64
63663;BME280;49815;51.618;0.336;2022-08-03T02:59:52;100592.17;;;14.72;65.51
63663;BME280;49815;51.618;0.336;2022-08-03T03:02:17;100588.94;;;14.62;66.40
63663;BME280;49815;51.618;0.336;2022-08-03T03:04:43;100588.79;;;14.90;65.39
63663;BME280;49815;51.618;0.336;2022-08-03T03:07:08;100589.82;;;14.99;66.22
63663;BME280;49815;51.618;0.336;2022-08-03T03:09:33;100592.43;;;15.02;66.78
63663;BME280;49815;51.618;0.336;2022-08-03T03:11:59;100594.60;;;15.21;65.45
63663;BME280;49815;51.618;0.336;2022-08-03T03:14:25;100592.56;;;15.31;65.36
63663;BME280;49815;51.618;0.336;2022-08-03T03:16:51;100595.16;;;15.63;64.79
63663;BME280;49815;51.618;0.336;2022-08-03T03:19:16;100600.45;;;15.35;65.30
63663;BME280;49815;51.618;0.336;2022-08-03T03:21:42;100593.28;;;15.01;66.16
63663;BME280;49815;51.618;0.336;2022-08-03T03:24:07;100594.14;;;14.75;65.48
63663;BME280;49815;51.618;0.336;2022-08-03T03:26:31;100592.79;;;14.57;67.32
63663;BME280;49815;51.618;0.336;2022-08-03T03:28:56;100590.44;;;14.55;67.15
63663;BME280;49815;51.618;0.336;2022-08-03T03:31:22;100587.09;;;14.38;68.12
63663;BME280;49815;51.618;0.336;2022-08-03T03:33:47;100589.21;;;14.18;69.68
63663;BME280;49815;51.618;0.336;2022-08-03T03:36:14;100589.51;;;15.27;65.79
63663;BME280;49815;51.618;0.336;2022-08-03T03:38:38;100589.37;;;14.94;66.92
63663;BME280;49815;51.618;0.336;2022-08-03T03:41:05;100591.04;;;15.23;65.54
63663;BME280;49815;51.618;0.336;2022-08-03T03:43:31;100598.93;;;15.06;66.14
63663;BME280;49815;51.618;0.336;2022-08-03T03:45:57;100595.55;;;15.09;65.72
63663;BME280;49815;51.618;0.336;2022-08-03T03:48:21;100590.80;;;15.03;65.18
63663;BME280;49815;51.618;0.336;2022-08-03T03:50:49;100590.25;;;14.46;68.77
63663;BME280;49815;51.618;0.336;2022-08-03T03:53:13;100587.49;;;15.40;66.73
63663;BME280;49815;51.618;0.336;2022-08-03T03:55:39;100587.99;;;15.07;66.37
63663;BME280;49815;51.618;0.336;2022-08-03T03:58:04;100583.08;;;14.85;66.75
63663;BME280;49815;51.618;0.336;2022-08-03T04:00:29;100586.93;;;16.10;63.97
63663;BME280;49815;51.618;0.336;2022-08-03T04:02:54;100589.04;;;15.90;62.99
63663;BME280;49815;51.618;0.336;2022-08-03T04:05:20;100598.22;;;15.57;63.65
63663;BME280;49815;51.618;0.336;2022-08-03T04:07:52;100594.84;;;15.99;63.09
63663;BME280;49815;51.618;0.336;2022-08-03T04:10:14;100594.20;;;14.96;65.54
63663;BME280;49815;51.618;0.336;2022-08-03T04:12:36;100591.17;;;15.60;63.98
63663;BME280;49815;51.618;0.336;2022-08-03T04:15:02;100599.08;;;15.23;64.30
63663;BME280;49815;51.618;0.336;2022-08-03T04:17:28;100601.83;;;15.22;64.43
63663;BME280;49815;51.618;0.336;2022-08-03T04:19:53;100606.27;;;15.63;64.56
63663;BME280;49815;51.618;0.336;2022-08-03T04:22:21;100607.27;;;15.63;63.64
63663;BME280;49815;51.618;0.336;2022-08-03T04:24:49;100609.77;;;15.55;64.35
63663;BME280;49815;51.618;0.336;2022-08-03T04:27:11;100603.19;;;16.49;61.92
63663;BME280;49815;51.618;0.336;2022-08-03T04:29:36;100602.40;;;16.75;59.61
63663;BME280;49815;51.618;0.336;2022-08-03T04:32:00;100602.69;;;16.10;62.13
63663;BME280;49815;51.618;0.336;2022-08-03T04:34:24;100609.47;;;15.85;62.74
63663;BME280;49815;51.618;0.336;2022-08-03T04:36:55;100615.19;;;15.02;65.45
63663;BME280;49815;51.618;0.336;2022-08-03T04:39:22;100616.54;;;15.29;64.63
63663;BME280;49815;51.618;0.336;2022-08-03T04:41:42;100618.95;;;14.86;65.17
63663;BME280;49815;51.618;0.336;2022-08-03T04:44:08;100613.92;;;14.89;65.01
63663;BME280;49815;51.618;0.336;2022-08-03T04:46:36;100614.79;;;15.77;64.19
63663;BME280;49815;51.618;0.336;2022-08-03T04:48:59;100612.73;;;15.54;64.84
63663;BME280;49815;51.618;0.336;2022-08-03T04:51:23;100613.81;;;14.73;66.91
63663;BME280;49815;51.618;0.336;2022-08-03T04:53:49;100615.31;;;15.70;63.91
63663;BME280;49815;51.618;0.336;2022-08-03T04:56:20;100611.79;;;16.27;63.52
63663;BME280;49815;51.618;0.336;2022-08-03T04:58:39;100608.63;;;16.60;61.51
63663;BME280;49815;51.618;0.336;2022-08-03T05:01:05;100614.09;;;16.22;61.43
63663;BME280;49815;51.618;0.336;2022-08-03T05:03:30;100620.45;;;15.24;64.32
63663;BME280;49815;51.618;0.336;2022-08-03T05:05:55;100612.91;;;16.57;60.91
63663;BME280;49815;51.618;0.336;2022-08-03T05:08:20;100620.16;;;15.66;62.88
63663;BME280;49815;51.618;0.336;2022-08-03T05:10:46;100617.11;;;16.55;61.07
63663;BME280;49815;51.618;0.336;2022-08-03T05:13:11;100618.08;;;16.59;60.90
63663;BME280;49815;51.618;0.336;2022-08-03T05:15:37;100621.64;;;17.03;59.45
63663;BME280;49815;51.618;0.336;2022-08-03T05:18:01;100623.93;;;16.06;61.92
63663;BME280;49815;51.618;0.336;2022-08-03T05:20:27;100622.30;;;16.07;62.14
63663;BME280;49815;51.618;0.336;2022-08-03T05:22:52;100626.75;;;14.94;64.92
63663;BME280;49815;51.618;0.336;2022-08-03T05:25:17;100634.12;;;15.49;65.13
63663;BME280;49815;51.618;0.336;2022-08-03T05:27:43;100636.34;;;16.50;63.14
63663;BME280;49815;51.618;0.336;2022-08-03T05:30:08;100644.88;;;15.43;64.10
63663;BME280;49815;51.618;0.336;2022-08-03T05:32:33;100646.39;;;16.28;63.38
63663;BME280;49815;51.618;0.336;2022-08-03T05:34:59;100652.94;;;15.33;63.95
63663;BME280;49815;51.618;0.336;2022-08-03T05:37:24;100651.32;;;15.53;63.83
63663;BME280;49815;51.618;0.336;2022-08-03T05:39:49;100651.23;;;16.34;61.99
63663;BME280;49815;51.618;0.336;2022-08-03T05:42:20;100645.76;;;16.72;61.06
63663;BME280;49815;51.618;0.336;2022-08-03T05:44:40;100650.89;;;16.32;60.76
63663;BME280;49815;51.618;0.336;2022-08-03T05:47:06;100643.00;;;16.69;60.48
63663;BME280;49815;51.618;0.336;2022-08-03T05:49:30;100647.34;;;16.70;60.89
63663;BME280;49815;51.618;0.336;2022-08-03T05:51:56;100648.74;;;16.40;61.62
63663;BME280;49815;51.618;0.336;2022-08-03T05:54:21;100644.49;;;16.13;61.61
63663;BME280;49815;51.618;0.336;2022-08-03T05:56:46;100640.86;;;17.44;59.07
63663;BME280;49815;51.618;0.336;2022-08-03T05:59:11;100639.60;;;16.94;60.38
63663;BME280;49815;51.618;0.336;2022-08-03T06:01:36;100639.19;;;17.38;57.36
63663;BME280;49815;51.618;0.336;2022-08-03T06:04:02;100649.30;;;15.41;63.52
63663;BME280;49815;51.618;0.336;2022-08-03T06:06:27;100639.29;;;17.90;56.95
63663;BME280;49815;51.618;0.336;2022-08-03T06:08:52;100640.80;;;16.62;59.59
63663;BME280;49815;51.618;0.336;2022-08-03T06:11:17;100642.04;;;16.99;59.77
63663;BME280;49815;51.618;0.336;2022-08-03T06:13:43;100643.88;;;17.49;59.29
63663;BME280;49815;51.618;0.336;2022-08-03T06:16:08;100647.99;;;16.13;62.04
63663;BME280;49815;51.618;0.336;2022-08-03T06:18:34;100646.12;;;16.57;62.35
63663;BME280;49815;51.618;0.336;2022-08-03T06:21:00;100644.02;;;17.59;58.37
63663;BME280;49815;51.618;0.336;2022-08-03T06:23:24;100645.57;;;17.59;58.04
63663;BME280;49815;51.618;0.336;2022-08-03T06:25:50;100647.95;;;16.56;60.22
63663;BME280;49815;51.618;0.336;2022-08-03T06:28:15;100650.06;;;16.20;61.15
63663;BME280;49815;51.618;0.336;2022-08-03T06:30:41;100646.68;;;16.33;60.39
63663;BME280;49815;51.618;0.336;2022-08-03T06:33:06;100652.70;;;15.92;62.48
63663;BME280;49815;51.618;0.336;2022-08-03T06:35:32;100653.15;;;16.64;60.79
63663;BME280;49815;51.618;0.336;2022-08-03T06:37:58;100648.98;;;16.95;59.41
63663;BME280;49815;51.618;0.336;2022-08-03T06:40:23;100648.37;;;16.73;60.16
63663;BME280;49815;51.618;0.336;2022-08-03T06:42:48;100648.09;;;17.46;58.79
63663;BME280;49815;51.618;0.336;2022-08-03T06:45:14;100651.04;;;16.62;60.71
63663;BME280;49815;51.618;0.336;2022-08-03T06:47:39;100643.71;;;17.63;57.82
63663;BME280;49815;51.618;0.336;2022-08-03T06:50:05;100650.49;;;17.00;59.75
63663;BME280;49815;51.618;0.336;2022-08-03T06:52:29;100647.30;;;17.17;59.01
63663;BME280;49815;51.618;0.336;2022-08-03T06:54:55;100645.14;;;16.70;60.14
63663;BME280;49815;51.618;0.336;2022-08-03T06:57:20;100645.63;;;17.33;57.45
63663;BME280;49815;51.618;0.336;2022-08-03T06:59:45;100648.73;;;16.82;60.62
63663;BME280;49815;51.618;0.336;2022-08-03T07:02:10;100644.33;;;17.36;58.55
63663;BME280;49815;51.618;0.336;2022-08-03T07:04:35;100638.94;;;19.05;55.33
63663;BME280;49815;51.618;0.336;2022-08-03T07:07:00;100645.86;;;17.31;58.44
63663;BME280;49815;51.618;0.336;2022-08-03T07:09:25;100648.20;;;18.08;57.35
63663;BME280;49815;51.618;0.336;2022-08-03T07:11:51;100648.00;;;18.51;56.10
63663;BME280;49815;51.618;0.336;2022-08-03T07:14:15;100651.50;;;18.78;54.69
63663;BME280;49815;51.618;0.336;2022-08-03T07:16:40;100648.30;;;18.08;56.21
63663;BME280;49815;51.618;0.336;2022-08-03T07:19:06;100648.72;;;17.88;57.20
63663;BME280;49815;51.618;0.336;2022-08-03T07:21:31;100648.76;;;19.30;54.43
63663;BME280;49815;51.618;0.336;2022-08-03T07:23:56;100653.51;;;18.25;56.46
63663;BME280;49815;51.618;0.336;2022-08-03T07:26:22;100659.64;;;17.60;58.35
63663;BME280;49815;51.618;0.336;2022-08-03T07:28:47;100661.15;;;18.65;55.99
63663;BME280;49815;51.618;0.336;2022-08-03T07:31:17;100663.92;;;18.71;55.90
63663;BME280;49815;51.618;0.336;2022-08-03T07:33:37;100657.68;;;18.15;56.05
63663;BME280;49815;51.618;0.336;2022-08-03T07:36:03;100659.34;;;17.77;57.73
63663;BME280;49815;51.618;0.336;2022-08-03T07:38:28;100658.52;;;18.30;57.01
63663;BME280;49815;51.618;0.336;2022-08-03T07:40:53;100660.61;;;18.44;55.89
63663;BME280;49815;51.618;0.336;2022-08-03T07:43:19;100660.54;;;18.93;55.13
63663;BME280;49815;51.618;0.336;2022-08-03T07:45:44;100657.23;;;18.74;55.32
63663;BME280;49815;51.618;0.336;2022-08-03T07:48:09;100662.71;;;18.66;55.09
63663;BME280;49815;51.618;0.336;2022-08-03T07:50:34;100660.09;;;19.46;53.99
63663;BME280;49815;51.618;0.336;2022-08-03T07:52:59;100663.08;;;19.45;54.01
63663;BME280;49815;51.618;0.336;2022-08-03T07:55:25;100661.92;;;18.72;55.05
63663;BME280;49815;51.618;0.336;2022-08-03T07:57:58;100659.82;;;19.01;54.44
63663;BME280;49815;51.618;0.336;2022-08-03T08:00:17;100664.20;;;18.53;55.50
63663;BME280;49815;51.618;0.336;2022-08-03T08:02:45;100664.92;;;18.29;56.44
63663;BME280;49815;51.618;0.336;2022-08-03T08:05:06;100664.65;;;18.13;56.60
63663;BME280;49815;51.618;0.336;2022-08-03T08:07:31;100667.15;;;18.12;57.40
63663;BME280;49815;51.618;0.336;2022-08-03T08:09:56;100667.52;;;18.32;56.56
63663;BME280;49815;51.618;0.336;2022-08-03T08:12:21;100665.52;;;17.66;57.72
63663;BME280;49815;51.618;0.336;2022-08-03T08:14:46;100669.30;;;18.54;56.77
63663;BME280;49815;51.618;0.336;2022-08-03T08:17:12;100667.27;;;19.00;54.26
63663;BME280;49815;51.618;0.336;2022-08-03T08:19:37;100673.10;;;19.36;54.32
63663;BME280;49815;51.618;0.336;2022-08-03T08:22:02;100679.14;;;19.31;53.89
63663;BME280;49815;51.618;0.336;2022-08-03T08:24:27;100681.32;;;20.31;52.59
63663;BME280;49815;51.618;0.336;2022-08-03T08:26:52;100677.25;;;19.46;53.01
63663;BME280;49815;51.618;0.336;2022-08-03T08:29:17;100677.05;;;20.24;51.76
63663;BME280;49815;51.618;0.336;2022-08-03T08:31:42;100676.96;;;19.86;52.31
63663;BME280;49815;51.618;0.336;2022-08-03T08:34:07;100673.44;;;18.60;54.46
63663;BME280;49815;51.618;0.336;2022-08-03T08:36:32;100673.83;;;18.97;54.39
63663;BME280;49815;51.618;0.336;2022-08-03T08:38:57;100672.58;;;20.46;51.94
63663;BME280;49815;51.618;0.336;2022-08-03T08:41:22;100671.81;;;20.59;50.98
63663;BME280;49815;51.618;0.336;2022-08-03T08:43:48;100671.70;;;20.30;51.34
63663;BME280;49815;51.618;0.336;2022-08-03T08:46:15;100666.59;;;19.65;53.41
63663;BME280;49815;51.618;0.336;2022-08-03T08:48:40;100666.31;;;19.62;52.94
63663;BME280;49815;51.618;0.336;2022-08-03T08:51:03;100666.35;;;19.32;54.53
63663;BME280;49815;51.618;0.336;2022-08-03T08:53:28;100663.21;;;19.72;53.16
63663;BME280;49815;51.618;0.336;2022-08-03T08:55:54;100660.71;;;21.87;48.94
63663;BME280;49815;51.618;0.336;2022-08-03T08:58:21;100668.17;;;20.71;51.06
63663;BME280;49815;51.618;0.336;2022-08-03T09:00:44;100670.67;;;20.74;50.85
63663;BME280;49815;51.618;0.336;2022-08-03T09:03:08;100666.96;;;20.58;50.97
63663;BME280;49815;51.618;0.336;2022-08-03T09:05:33;100663.67;;;20.10;52.95
63663;BME280;49815;51.618;0.336;2022-08-03T09:07:58;100659.43;;;21.58;49.79
63663;BME280;49815;51.618;0.336;2022-08-03T09:10:23;100662.87;;;20.45;50.58
63663;BME280;49815;51.618;0.336;2022-08-03T09:12:50;100660.33;;;20.66;51.76
63663;BME280;49815;51.618;0.336;2022-08-03T09:15:19;100660.95;;;21.02;50.96
63663;BME280;49815;51.618;0.336;2022-08-03T09:17:39;100672.76;;;21.01;49.74
63663;BME280;49815;51.618;0.336;2022-08-03T09:20:06;100669.82;;;20.66;51.73
63663;BME280;49815;51.618;0.336;2022-08-03T09:22:28;100661.24;;;20.87;50.06
63663;BME280;49815;51.618;0.336;2022-08-03T09:24:56;100660.75;;;21.07;50.43
63663;BME280;49815;51.618;0.336;2022-08-03T09:27:19;100656.51;;;22.32;47.21
63663;BME280;49815;51.618;0.336;2022-08-03T09:29:47;100656.96;;;23.06;46.53
63663;BME280;49815;51.618;0.336;2022-08-03T09:32:10;100675.30;;;20.67;49.23
63663;BME280;49815;51.618;0.336;2022-08-03T09:34:35;100672.38;;;20.76;51.60
63663;BME280;49815;51.618;0.336;2022-08-03T09:36:58;100667.51;;;20.56;51.33
63663;BME280;49815;51.618;0.336;2022-08-03T09:39:26;100650.29;;;22.38;47.56
63663;BME280;49815;51.618;0.336;2022-08-03T09:44:14;100660.42;;;20.46;51.08
63663;BME280;49815;51.618;0.336;2022-08-03T09:46:47;100655.04;;;21.25;49.13
63663;BME280;49815;51.618;0.336;2022-08-03T09:49:10;100652.17;;;21.80;47.59
63663;BME280;49815;51.618;0.336;2022-08-03T09:51:29;100652.26;;;22.99;46.39
63663;BME280;49815;51.618;0.336;2022-08-03T09:53:54;100649.53;;;21.79;48.13
63663;BME280;49815;51.618;0.336;2022-08-03T09:56:19;100655.29;;;22.33;47.38
63663;BME280;49815;51.618;0.336;2022-08-03T09:58:46;100643.20;;;22.45;47.43
63663;BME280;49815;51.618;0.336;2022-08-03T10:01:10;100641.06;;;21.65;48.14
63663;BME280;49815;51.618;0.336;2022-08-03T10:03:38;100647.81;;;20.94;50.05
63663;BME280;49815;51.618;0.336;2022-08-03T10:06:13;100648.24;;;20.87;50.62
63663;BME280;49815;51.618;0.336;2022-08-03T10:08:26;100643.25;;;21.77;48.36
63663;BME280;49815;51.618;0.336;2022-08-03T10:10:52;100635.63;;;21.44;49.03
63663;BME280;49815;51.618;0.336;2022-08-03T10:13:17;100639.75;;;22.70;46.43
63663;BME280;49815;51.618;0.336;2022-08-03T10:15:42;100638.08;;;22.34;47.50
63663;BME280;49815;51.618;0.336;2022-08-03T10:18:08;100631.97;;;23.02;46.70
63663;BME280;49815;51.618;0.336;2022-08-03T10:20:36;100637.70;;;22.46;47.56
63663;BME280;49815;51.618;0.336;2022-08-03T10:22:59;100633.12;;;22.60;47.48
63663;BME280;49815;51.618;0.336;2022-08-03T10:25:25;100628.73;;;23.82;45.54
63663;BME280;49815;51.618;0.336;2022-08-03T10:27:52;100629.87;;;21.69;48.38
63663;BME280;49815;51.618;0.336;2022-08-03T10:30:16;100636.83;;;21.21;49.97
63663;BME280;49815;51.618;0.336;2022-08-03T10:32:43;100627.74;;;21.94;48.47
63663;BME280;49815;51.618;0.336;2022-08-03T10:35:10;100630.84;;;22.85;47.09
63663;BME280;49815;51.618;0.336;2022-08-03T10:37:39;100634.87;;;22.53;47.18
63663;BME280;49815;51.618;0.336;2022-08-03T10:39:59;100635.49;;;22.43;47.21
63663;BME280;49815;51.618;0.336;2022-08-03T10:42:25;100634.06;;;22.16;48.21
63663;BME280;49815;51.618;0.336;2022-08-03T10:44:55;100625.99;;;23.29;45.93
63663;BME280;49815;51.618;0.336;2022-08-03T10:47:15;100624.21;;;22.55;47.33
63663;BME280;49815;51.618;0.336;2022-08-03T10:49:40;100617.09;;;23.77;45.11
63663;BME280;49815;51.618;0.336;2022-08-03T10:52:11;100626.77;;;23.59;45.04
63663;BME280;49815;51.618;0.336;2022-08-03T10:54:38;100621.63;;;23.01;46.24
63663;BME280;49815;51.618;0.336;2022-08-03T10:56:58;100631.82;;;22.89;46.25
63663;BME280;49815;51.618;0.336;2022-08-03T11:01:51;100622.89;;;23.86;45.08
63663;BME280;49815;51.618;0.336;2022-08-03T11:04:17;100630.01;;;22.34;46.95
63663;BME280;49815;51.618;0.336;2022-08-03T11:06:41;100617.82;;;23.21;45.82
63663;BME280;49815;51.618;0.336;2022-08-03T11:09:13;100620.29;;;23.43;44.64
63663;BME280;49815;51.618;0.336;2022-08-03T11:11:32;100619.49;;;24.45;43.60
63663;BME280;49815;51.618;0.336;2022-08-03T11:14:01;100618.82;;;25.50;41.21
63663;BME280;49815;51.618;0.336;2022-08-03T11:16:26;100624.29;;;23.92;43.14
63663;BME280;49815;51.618;0.336;2022-08-03T11:18:57;100619.01;;;23.27;44.85
63663;BME280;49815;51.618;0.336;2022-08-03T11:21:16;100619.39;;;23.88;43.88
63663;BME280;49815;51.618;0.336;2022-08-03T11:23:45;100625.65;;;24.81;42.58
63663;BME280;49815;51.618;0.336;2022-08-03T11:26:10;100626.77;;;22.76;45.65
63663;BME280;49815;51.618;0.336;2022-08-03T11:28:34;100623.93;;;23.56;44.49
63663;BME280;49815;51.618;0.336;2022-08-03T11:33:30;100619.68;;;22.95;44.90
63663;BME280;49815;51.618;0.336;2022-08-03T11:35:57;100618.52;;;23.42;43.99
63663;BME280;49815;51.618;0.336;2022-08-03T11:38:16;100616.69;;;24.26;43.73
63663;BME280;49815;51.618;0.336;2022-08-03T11:40:43;100614.36;;;25.21;41.70
63663;BME280;49815;51.618;0.336;2022-08-03T11:43:09;100615.65;;;24.37;42.30
63663;BME280;49815;51.618;0.336;2022-08-03T11:45:35;100613.44;;;24.69;42.60
63663;BME280;49815;51.618;0.336;2022-08-03T11:48:11;100616.94;;;24.49;42.21
63663;BME280;49815;51.618;0.336;2022-08-03T11:50:24;100621.31;;;24.14;42.27
63663;BME280;49815;51.618;0.336;2022-08-03T11:52:50;100613.20;;;23.89;43.66
63663;BME280;49815;51.618;0.336;2022-08-03T11:55:18;100603.93;;;23.36;44.37
63663;BME280;49815;51.618;0.336;2022-08-03T11:57:41;100608.26;;;23.31;44.60
63663;BME280;49815;51.618;0.336;2022-08-03T12:00:21;100609.26;;;23.12;45.52
63663;BME280;49815;51.618;0.336;2022-08-03T12:02:33;100613.58;;;22.86;45.76
63663;BME280;49815;51.618;0.336;2022-08-03T12:04:59;100615.30;;;22.29;46.80
63663;BME280;49815;51.618;0.336;2022-08-03T12:07:24;100617.33;;;21.92;46.81
63663;BME280;49815;51.618;0.336;2022-08-03T12:10:05;100613.91;;;22.00;47.35
63663;BME280;49815;51.618;0.336;2022-08-03T12:12:15;100612.11;;;23.22;45.59
63663;BME280;49815;51.618;0.336;2022-08-03T12:14:46;100616.67;;;24.69;42.69
63663;BME280;49815;51.618;0.336;2022-08-03T12:17:07;100615.97;;;24.55;42.11
63663;BME280;49815;51.618;0.336;2022-08-03T12:19:41;100614.68;;;23.56;43.88
63663;BME280;49815;51.618;0.336;2022-08-03T12:21:58;100613.81;;;23.50;43.66
63663;BME280;49815;51.618;0.336;2022-08-03T12:24:24;100616.60;;;25.19;41.22
63663;BME280;49815;51.618;0.336;2022-08-03T12:26:51;100611.62;;;25.56;40.57
63663;BME280;49815;51.618;0.336;2022-08-03T12:29:16;100618.39;;;24.78;41.28
63663;BME280;49815;51.618;0.336;2022-08-03T12:31:42;100621.49;;;23.95;42.47
63663;BME280;49815;51.618;0.336;2022-08-03T12:34:07;100616.79;;;23.68;43.07
63663;BME280;49815;51.618;0.336;2022-08-03T12:36:34;100616.84;;;24.20;42.74
63663;BME280;49815;51.618;0.336;2022-08-03T12:39:02;100608.35;;;24.41;42.31
63663;BME280;49815;51.618;0.336;2022-08-03T12:41:31;100604.47;;;25.24;40.93
63663;BME280;49815;51.618;0.336;2022-08-03T12:43:52;100610.02;;;23.95;42.45
63663;BME280;49815;51.618;0.336;2022-08-03T12:46:18;100611.04;;;25.46;40.81